Time;durP1;ratioP1;P1;durP2;ratioP2;P2;SDS_P1;SDS_P2;PMS_P1;PMS_P2;Temp;Humidity;BMP_temperature;BMP_pressure;BME280_temperature;BME280_humidity;BME280_pressure;Samples;Min_cycle;Max_cycle;Signal;HPM_P1;HPM_P2
2022/09/10 00:00:45;;;;;;;4.23;0.83;;;;;;;13.71;100.00;96069.69;5067999;28;20108;-77
2022/09/10 00:03:11;;;;;;;3.63;1.13;;;;;;;13.72;100.00;96068.69;5066667;28;20120;-76
2022/09/10 00:05:39;;;;;;;5.93;0.90;;;;;;;13.77;100.00;96076.88;5066055;28;20033;-77
2022/09/10 00:08:06;;;;;;;3.97;0.90;;;;;;;13.73;100.00;96075.63;5079694;28;20477;-76
2022/09/10 00:10:40;;;;;;;3.63;1.00;;;;;;;13.79;100.00;96082.00;5060869;28;20505;-75
2022/09/10 00:13:06;;;;;;;5.03;0.90;;;;;;;13.59;100.00;96089.66;5068149;28;20610;-75
2022/09/10 00:15:48;;;;;;;3.57;0.90;;;;;;;13.52;100.00;96113.34;5066179;28;20013;-74
2022/09/10 00:18:15;;;;;;;5.60;1.60;;;;;;;13.30;100.00;96133.50;5059883;28;20508;-75
2022/09/10 00:20:47;;;;;;;6.47;1.80;;;;;;;13.12;100.00;96143.53;5060046;28;20035;-74
2022/09/10 00:23:18;;;;;;;5.23;1.17;;;;;;;13.02;100.00;96132.41;5073798;28;20028;-75
2022/09/10 00:25:45;;;;;;;4.00;0.90;;;;;;;12.85;100.00;96143.06;5059640;28;20044;-76
2022/09/10 00:28:11;;;;;;;3.53;1.03;;;;;;;12.84;100.00;96137.94;5065032;28;20035;-71
2022/09/10 00:30:45;;;;;;;3.43;1.10;;;;;;;12.87;100.00;96143.69;5054881;28;20044;-75
2022/09/10 00:33:12;;;;;;;5.37;1.10;;;;;;;12.73;100.00;96140.00;5069321;28;20028;-75
2022/09/10 00:35:39;;;;;;;4.10;1.03;;;;;;;12.87;100.00;96133.16;5045031;28;20532;-75
2022/09/10 00:38:06;;;;;;;3.60;1.00;;;;;;;12.83;100.00;96121.31;5066273;28;20028;-76
2022/09/10 00:40:32;;;;;;;3.57;1.00;;;;;;;12.97;100.00;96123.16;5063954;28;20040;-73
2022/09/10 00:42:58;;;;;;;3.93;1.10;;;;;;;12.90;100.00;96118.78;5065424;28;20036;-73
2022/09/10 00:45:32;;;;;;;3.47;1.00;;;;;;;13.01;100.00;96125.47;5065490;28;20024;-75
2022/09/10 00:48:03;;;;;;;2.60;1.10;;;;;;;13.04;100.00;96122.47;5064828;28;20059;-76
2022/09/10 00:50:33;;;;;;;4.80;1.10;;;;;;;12.98;100.00;96122.19;5058263;28;20032;-73
2022/09/10 00:53:22;;;;;;;4.70;1.30;;;;;;;13.04;100.00;96128.56;5049504;28;20179;-74
2022/09/10 00:55:51;;;;;;;6.80;1.60;;;;;;;12.97;100.00;96117.88;5064464;28;20065;-76
2022/09/10 00:58:19;;;;;;;5.00;1.33;;;;;;;13.02;100.00;96113.91;5050219;28;20090;-76
2022/09/10 01:00:45;;;;;;;3.27;1.40;;;;;;;12.97;100.00;96117.88;5063117;28;20035;-75
2022/09/10 01:03:14;;;;;;;4.53;1.67;;;;;;;12.91;100.00;96118.63;5067574;28;20032;-75
2022/09/10 01:05:44;;;;;;;3.93;1.10;;;;;;;12.84;100.00;96122.94;5055045;28;20067;-75
2022/09/10 01:08:14;;;;;;;3.73;1.10;;;;;;;12.86;100.00;96120.94;5063685;28;20081;-75
2022/09/10 01:11:25;;;;;;;3.47;1.13;;;;;;;12.83;100.00;96112.56;5064960;28;20034;-75
2022/09/10 01:13:51;;;;;;;4.53;1.10;;;;;;;12.84;100.00;96112.38;5060469;28;20040;-73
2022/09/10 01:16:47;;;;;;;3.97;1.30;;;;;;;12.84;100.00;96115.03;5049824;28;20028;-76
2022/09/10 01:19:55;;;;;;;5.13;1.10;;;;;;;12.88;100.00;96113.69;5044315;28;20039;-74
2022/09/10 01:22:27;;;;;;;4.60;1.20;;;;;;;12.91;100.00;96118.63;5058945;28;20838;-76
2022/09/10 01:25:06;;;;;;;5.17;1.20;;;;;;;12.93;100.00;96111.31;5050234;28;20033;-74
2022/09/10 01:27:38;;;;;;;5.03;1.40;;;;;;;12.92;100.00;96109.69;5044827;28;20457;-71
2022/09/10 01:30:11;;;;;;;7.27;1.30;;;;;;;12.87;100.00;96106.75;5065266;28;20060;-76
2022/09/10 01:32:47;;;;;;;2.50;0.97;;;;;;;12.89;100.00;96110.03;5048927;28;20124;-75
2022/09/10 01:35:27;;;;;;;4.67;1.80;;;;;;;12.92;100.00;96107.06;5066237;28;20021;-75
2022/09/10 01:37:58;;;;;;;4.27;1.30;;;;;;;12.94;100.00;96099.78;5052369;28;20489;-76
2022/09/10 01:40:28;;;;;;;5.03;1.67;;;;;;;12.87;100.00;96096.19;5063482;28;20024;-76
2022/09/10 01:43:07;;;;;;;5.40;1.60;;;;;;;12.80;100.00;96089.16;5064078;28;20494;-75
2022/09/10 01:45:50;;;;;;;3.63;1.20;;;;;;;12.71;100.00;96088.44;5048465;28;20090;-75
2022/09/10 01:48:52;;;;;;;3.90;1.70;;;;;;;12.70;100.00;96094.69;5058415;28;20029;-75
2022/09/10 01:51:45;;;;;;;3.23;1.13;;;;;;;12.65;100.00;96084.66;5057499;28;20029;-73
2022/09/10 01:54:24;;;;;;;3.67;1.30;;;;;;;12.69;100.00;96088.59;5065144;28;20029;-75
2022/09/10 01:57:11;;;;;;;5.10;1.30;;;;;;;12.78;100.00;96092.00;5063209;28;20455;-75
2022/09/10 01:59:45;;;;;;;4.87;1.23;;;;;;;12.87;100.00;96095.38;5064589;28;20041;-76
2022/09/10 02:02:20;;;;;;;3.97;1.23;;;;;;;12.91;100.00;96091.38;5042987;28;20032;-75
2022/09/10 02:04:49;;;;;;;6.07;1.40;;;;;;;12.68;100.00;96088.78;5059597;28;20048;-76
2022/09/10 02:07:21;;;;;;;5.97;1.60;;;;;;;12.71;100.00;96088.44;5071053;28;20033;-76
2022/09/10 02:09:49;;;;;;;3.50;1.40;;;;;;;12.78;100.00;96093.81;5043140;28;20040;-75
2022/09/10 02:12:18;;;;;;;3.23;1.23;;;;;;;12.74;100.00;96090.69;5065693;28;20043;-75
2022/09/10 02:15:05;;;;;;;5.63;1.70;;;;;;;12.87;100.00;96090.91;5065720;28;20040;-75
2022/09/10 02:17:48;;;;;;;2.43;1.20;;;;;;;12.82;100.00;96103.03;5072079;28;20028;-76
2022/09/10 02:20:14;;;;;;;6.17;1.47;;;;;;;12.78;100.00;96101.75;5071631;28;20036;-74
2022/09/10 02:22:59;;;;;;;6.77;1.33;;;;;;;12.79;100.00;96101.53;5054444;28;20094;-75
2022/09/10 02:25:31;;;;;;;5.83;1.27;;;;;;;12.80;100.00;96097.09;5038542;28;20040;-75
2022/09/10 02:27:57;;;;;;;3.15;0.98;;;;;;;12.73;100.00;96096.97;5071026;28;20161;-75
2022/09/10 02:30:23;;;;;;;4.97;1.50;;;;;;;12.78;100.00;96107.00;5072403;28;20043;-76
2022/09/10 02:32:50;;;;;;;7.67;1.80;;;;;;;12.76;100.00;96104.53;5075737;28;20036;-75
2022/09/10 02:35:15;;;;;;;4.07;1.70;;;;;;;12.68;100.00;96092.22;5071219;28;20482;-76
2022/09/10 02:37:44;;;;;;;4.00;1.30;;;;;;;12.68;100.00;96102.78;5070146;28;20509;-75
2022/09/10 02:40:10;;;;;;;5.87;1.37;;;;;;;12.60;100.00;96096.72;5071923;28;20032;-73
2022/09/10 02:42:37;;;;;;;4.40;1.27;;;;;;;12.59;100.00;96095.09;5050549;28;20025;-76
2022/09/10 02:45:04;;;;;;;4.60;1.43;;;;;;;12.63;100.00;96093.75;5070796;28;20465;-76
2022/09/10 02:47:30;;;;;;;6.27;1.70;;;;;;;12.68;100.00;96108.06;5056446;28;20028;-76
2022/09/10 02:49:55;;;;;;;5.20;1.70;;;;;;;12.67;100.00;96118.78;5068485;28;20030;-75
2022/09/10 02:52:21;;;;;;;3.97;1.60;;;;;;;12.72;100.00;96119.09;5048554;28;20085;-75
2022/09/10 02:54:49;;;;;;;6.47;1.40;;;;;;;12.67;100.00;96127.50;5067740;28;20037;-75
2022/09/10 02:57:15;;;;;;;4.87;1.63;;;;;;;12.71;100.00;96118.25;5068537;28;20799;-75
2022/09/10 02:59:42;;;;;;;7.60;1.90;;;;;;;12.71;100.00;96117.44;5065458;28;20532;-76
2022/09/10 03:02:09;;;;;;;3.40;1.30;;;;;;;12.67;100.00;96110.84;5052150;28;20028;-75
2022/09/10 03:04:37;;;;;;;4.33;1.30;;;;;;;12.72;100.00;96108.53;5065569;28;20028;-75
2022/09/10 03:07:03;;;;;;;3.37;1.20;;;;;;;12.62;100.00;96100.84;5047637;28;20070;-74
2022/09/10 03:09:28;;;;;;;2.80;1.20;;;;;;;12.55;100.00;96102.53;5048076;28;20028;-75
2022/09/10 03:11:54;;;;;;;4.13;1.53;;;;;;;12.60;100.00;96107.28;5065947;28;20094;-75
2022/09/10 03:14:22;;;;;;;2.63;1.10;;;;;;;12.45;100.00;96102.75;5066729;28;20473;-73
2022/09/10 03:16:48;;;;;;;4.37;1.13;;;;;;;12.57;100.00;96110.25;5047835;28;20173;-75
2022/09/10 03:19:15;;;;;;;3.00;0.90;;;;;;;12.56;100.00;96106.00;5055638;28;20037;-75
2022/09/10 03:21:41;;;;;;;5.10;1.10;;;;;;;12.56;100.00;96104.16;5056642;28;20036;-76
2022/09/10 03:24:10;;;;;;;4.27;1.30;;;;;;;12.48;100.00;96105.06;5061260;28;20031;-75
2022/09/10 03:26:36;;;;;;;3.47;1.10;;;;;;;12.44;100.00;96102.91;5065359;28;20021;-75
2022/09/10 03:29:02;;;;;;;4.33;1.40;;;;;;;12.47;100.00;96105.22;5067438;28;20423;-74
2022/09/10 03:31:34;;;;;;;5.77;1.27;;;;;;;12.49;100.00;96104.03;5050161;28;20029;-74
2022/09/10 03:34:00;;;;;;;5.63;1.60;;;;;;;12.51;100.00;96101.25;5048433;28;20036;-75
2022/09/10 03:36:29;;;;;;;5.20;1.37;;;;;;;12.43;100.00;96104.75;5066723;28;20032;-72
2022/09/10 03:38:54;;;;;;;3.23;1.13;;;;;;;12.36;100.00;96109.06;5067521;28;20111;-76
2022/09/10 03:41:20;;;;;;;3.27;1.20;;;;;;;12.41;100.00;96111.19;5051698;28;20031;-75
2022/09/10 03:43:46;;;;;;;5.63;1.53;;;;;;;12.36;100.00;96114.34;5070516;28;20036;-76
2022/09/10 03:46:13;;;;;;;5.07;1.50;;;;;;;12.39;100.00;96108.72;5050417;28;20024;-76
2022/09/10 03:48:44;;;;;;;3.10;1.40;;;;;;;12.35;100.00;96117.97;5050843;28;20477;-75
2022/09/10 03:51:10;;;;;;;3.77;1.70;;;;;;;12.38;100.00;96116.81;5059316;28;20044;-76
2022/09/10 03:53:37;;;;;;;3.40;1.70;;;;;;;12.30;100.00;96115.03;5051939;28;20025;-75
2022/09/10 03:56:03;;;;;;;4.67;1.40;;;;;;;12.25;100.00;96106.81;5020532;28;1218700;-75
2022/09/10 03:58:31;;;;;;;4.00;1.33;;;;;;;12.30;100.00;96104.47;5068433;28;20615;-75
2022/09/10 04:00:57;;;;;;;6.40;1.87;;;;;;;12.22;100.00;96096.63;5068495;28;20047;-75
2022/09/10 04:03:23;;;;;;;3.37;1.50;;;;;;;12.32;100.00;96099.88;5050898;28;20025;-76
2022/09/10 04:05:50;;;;;;;3.93;1.87;;;;;;;12.32;100.00;96101.69;5046239;28;20049;-75
2022/09/10 04:08:17;;;;;;;4.83;1.70;;;;;;;12.34;100.00;96100.53;5068056;28;20040;-76
2022/09/10 04:10:43;;;;;;;5.33;1.60;;;;;;;12.39;100.00;96098.19;5068323;28;20119;-73
2022/09/10 04:13:10;;;;;;;4.43;1.33;;;;;;;12.35;100.00;96102.16;5063982;28;20037;-75
2022/09/10 04:15:37;;;;;;;4.50;1.70;;;;;;;12.34;100.00;96099.69;5065364;28;20023;-74
2022/09/10 04:18:04;;;;;;;4.33;1.60;;;;;;;12.26;100.00;96093.47;5066363;28;20040;-76
2022/09/10 04:20:32;;;;;;;4.33;1.63;;;;;;;12.27;100.00;96103.03;5068043;28;20031;-75
2022/09/10 04:23:04;;;;;;;6.67;1.43;;;;;;;12.31;100.00;96097.38;5067855;28;20049;-76
2022/09/10 04:25:32;;;;;;;4.43;1.50;;;;;;;12.38;100.00;96101.81;5066855;28;20028;-72
2022/09/10 04:28:00;;;;;;;4.53;1.13;;;;;;;12.27;100.00;96099.53;5048589;28;20028;-76
2022/09/10 04:30:27;;;;;;;2.97;1.53;;;;;;;12.39;100.00;96097.34;5067159;28;20048;-76
2022/09/10 04:32:53;;;;;;;4.73;1.70;;;;;;;12.32;100.00;96096.41;5065577;28;20497;-75
2022/09/10 04:35:20;;;;;;;5.53;1.60;;;;;;;12.27;100.00;96094.28;5066759;28;20363;-74
2022/09/10 04:37:46;;;;;;;4.50;1.60;;;;;;;12.27;100.00;96091.63;5071620;28;20019;-72
2022/09/10 04:40:13;;;;;;;3.60;1.57;;;;;;;12.26;100.00;96098.72;5067068;28;20028;-76
2022/09/10 04:42:38;;;;;;;4.07;1.43;;;;;;;12.31;100.00;96100.88;5067080;28;20505;-75
2022/09/10 04:45:05;;;;;;;1.87;1.20;;;;;;;12.39;100.00;96100.00;5050051;28;20087;-75
2022/09/10 04:47:32;;;;;;;4.50;1.20;;;;;;;12.38;100.00;96101.81;5058823;28;20036;-74
2022/09/10 04:49:58;;;;;;;4.10;1.20;;;;;;;12.44;100.00;96102.91;5066965;28;20036;-75
2022/09/10 04:52:26;;;;;;;3.40;1.30;;;;;;;12.46;100.00;96100.94;5067347;28;20028;-76
2022/09/10 04:54:52;;;;;;;4.37;1.63;;;;;;;12.45;100.00;96099.31;5048370;28;20034;-75
2022/09/10 04:57:18;;;;;;;2.30;0.90;;;;;;;12.46;100.00;96099.13;5063626;28;20040;-74
2022/09/10 04:59:45;;;;;;;4.20;1.20;;;;;;;12.40;100.00;96097.16;5067192;28;20039;-75
2022/09/10 05:02:12;;;;;;;3.77;0.93;;;;;;;12.45;100.00;96096.66;5050085;28;20081;-74
2022/09/10 05:04:38;;;;;;;5.07;1.30;;;;;;;12.49;100.00;96104.03;5066637;28;20040;-75
2022/09/10 05:07:05;;;;;;;3.27;1.10;;;;;;;12.42;100.00;96103.09;5054363;28;20024;-75
2022/09/10 05:09:32;;;;;;;3.60;0.90;;;;;;;12.47;100.00;96107.84;5067707;28;20024;-74
2022/09/10 05:12:01;;;;;;;3.53;1.00;;;;;;;12.48;100.00;96104.22;5050346;28;20497;-75
2022/09/10 05:14:28;;;;;;;3.23;1.00;;;;;;;12.42;100.00;96099.66;5050760;28;20498;-75
2022/09/10 05:16:54;;;;;;;2.20;0.90;;;;;;;12.47;100.00;96103.41;5066197;28;20033;-75
2022/09/10 05:19:20;;;;;;;3.47;0.90;;;;;;;12.53;100.00;96103.69;5065678;28;20024;-75
2022/09/10 05:21:54;;;;;;;3.20;0.90;;;;;;;12.54;100.00;96103.53;5059280;28;20024;-73
2022/09/10 05:24:21;;;;;;;2.37;1.00;;;;;;;12.55;100.00;96107.00;5065895;28;20028;-72
2022/09/10 05:26:47;;;;;;;2.63;0.97;;;;;;;12.60;100.00;96109.91;5049600;28;20028;-74
2022/09/10 05:29:12;;;;;;;2.60;1.10;;;;;;;12.57;100.00;96111.06;5065504;28;20032;-74
2022/09/10 05:31:40;;;;;;;2.47;1.00;;;;;;;12.54;100.00;96107.97;5058980;28;20504;-74
2022/09/10 05:34:07;;;;;;;3.17;1.30;;;;;;;12.59;100.00;96110.91;5050048;28;20035;-73
2022/09/10 05:36:34;;;;;;;5.10;1.33;;;;;;;12.60;100.00;96109.91;5065816;28;20725;-75
2022/09/10 05:39:02;;;;;;;3.33;1.50;;;;;;;12.60;100.00;96107.28;5066094;28;20047;-75
2022/09/10 05:41:30;;;;;;;2.27;1.10;;;;;;;12.58;100.00;96111.94;5065636;28;20082;-74
2022/09/10 05:43:57;;;;;;;5.67;1.30;;;;;;;12.54;100.00;96111.47;5066213;28;20090;-75
2022/09/10 05:46:23;;;;;;;2.23;0.97;;;;;;;12.56;100.00;96117.34;5066776;28;20502;-75
2022/09/10 05:48:54;;;;;;;4.80;1.70;;;;;;;12.62;100.00;96118.50;5067050;28;20123;-75
2022/09/10 05:51:20;;;;;;;3.37;1.20;;;;;;;12.53;100.00;96117.72;5066265;28;20028;-73
2022/09/10 05:53:48;;;;;;;3.43;1.37;;;;;;;12.65;100.00;96113.69;5055410;28;20021;-73
2022/09/10 05:56:15;;;;;;;2.10;1.10;;;;;;;12.62;100.00;96107.94;5042125;28;20032;-75
2022/09/10 05:58:43;;;;;;;3.13;1.40;;;;;;;12.63;100.00;96113.03;5054015;28;20029;-75
2022/09/10 06:01:11;;;;;;;5.10;1.70;;;;;;;12.60;100.00;96115.19;5054238;28;20051;-74
2022/09/10 06:03:39;;;;;;;3.40;1.03;;;;;;;12.67;100.00;96116.13;5049999;28;20039;-75
2022/09/10 06:06:05;;;;;;;3.07;1.17;;;;;;;12.73;100.00;96120.72;5068171;28;20036;-74
2022/09/10 06:08:34;;;;;;;2.23;1.10;;;;;;;12.77;100.00;96124.63;5051447;28;20024;-75
2022/09/10 06:11:08;;;;;;;5.03;1.20;;;;;;;12.81;100.00;96120.69;5068351;28;20490;-74
2022/09/10 06:13:41;;;;;;;3.47;1.37;;;;;;;12.83;100.00;96118.66;5052383;28;20396;-74
2022/09/10 06:16:08;;;;;;;3.57;1.20;;;;;;;12.83;100.00;96125.75;5066254;28;20025;-75
2022/09/10 06:18:34;;;;;;;5.13;1.47;;;;;;;12.85;100.00;96127.25;5061113;28;20374;-75
2022/09/10 06:21:12;;;;;;;3.50;1.00;;;;;;;12.85;100.00;96129.88;5064111;28;20486;-75
2022/09/10 06:23:41;;;;;;;4.30;1.07;;;;;;;12.90;100.00;96132.78;5063521;28;20021;-75
2022/09/10 06:26:11;;;;;;;2.93;1.00;;;;;;;12.91;100.00;96134.47;5065572;28;20043;-73
2022/09/10 06:28:38;;;;;;;6.10;1.23;;;;;;;12.94;100.00;96138.53;5065371;28;20028;-72
2022/09/10 06:31:05;;;;;;;4.00;1.20;;;;;;;12.92;100.00;96157.22;5065193;28;20035;-75
2022/09/10 06:33:34;;;;;;;7.60;1.50;;;;;;;12.84;100.00;96151.97;5058990;28;20051;-74
2022/09/10 06:36:02;;;;;;;3.27;1.47;;;;;;;12.92;100.00;96151.94;5064186;28;20028;-74
2022/09/10 06:38:32;;;;;;;2.27;1.10;;;;;;;12.95;100.00;96154.22;5059375;28;20111;-74
2022/09/10 06:41:00;;;;;;;1.83;1.23;;;;;;;12.90;100.00;96151.28;5066637;28;20035;-74
2022/09/10 06:43:35;;;;;;;3.97;1.40;;;;;;;12.95;100.00;96153.41;5066197;28;20032;-74
2022/09/10 06:46:18;;;;;;;6.07;1.63;;;;;;;12.85;100.00;96156.28;5062101;28;20101;-74
2022/09/10 06:49:05;;;;;;;5.17;1.73;;;;;;;12.79;100.00;96153.50;5068737;28;20041;-74
2022/09/10 06:51:33;;;;;;;4.37;1.40;;;;;;;12.80;100.00;96148.03;5069370;28;20509;-74
2022/09/10 06:54:01;;;;;;;4.90;1.10;;;;;;;12.84;100.00;96151.97;5068294;28;20028;-72
2022/09/10 06:56:28;;;;;;;3.87;1.60;;;;;;;12.95;100.00;96151.56;5073732;28;20143;-75
2022/09/10 06:58:56;;;;;;;3.50;1.50;;;;;;;13.09;100.00;96154.44;5079730;28;20432;-74
2022/09/10 07:01:24;;;;;;;2.03;1.13;;;;;;;13.16;100.00;96153.56;5061314;28;20024;-72
2022/09/10 07:03:58;;;;;;;4.05;1.42;;;;;;;13.32;100.00;96151.81;5075570;28;20025;-75
2022/09/10 07:06:26;;;;;;;2.07;1.30;;;;;;;13.41;100.00;96151.59;5069196;28;20462;-74
2022/09/10 07:08:57;;;;;;;7.00;1.80;;;;;;;13.60;100.00;96154.69;5069123;28;20071;-74
2022/09/10 07:11:27;;;;;;;4.53;1.10;;;;;;;13.64;100.00;96151.50;5051233;28;20032;-75
2022/09/10 07:13:58;;;;;;;2.97;1.13;;;;;;;13.56;100.00;96153.44;5062590;28;20039;-75
2022/09/10 07:16:28;;;;;;;3.53;1.30;;;;;;;13.67;100.00;96155.63;5070131;28;20552;-75
2022/09/10 07:18:59;;;;;;;3.43;1.20;;;;;;;13.71;100.00;96161.38;5057449;28;20555;-75
2022/09/10 07:21:36;;;;;;;2.37;1.27;;;;;;;13.91;100.00;96152.72;5064585;28;20025;-76
2022/09/10 07:24:04;;;;;;;4.17;1.10;;;;;;;13.90;100.00;96158.19;5074533;28;20397;-75
2022/09/10 07:26:32;;;;;;;3.17;1.00;;;;;;;13.78;100.00;96168.41;5065104;28;20593;-74
2022/09/10 07:28:58;;;;;;;4.87;1.30;;;;;;;13.72;100.00;96161.19;5062097;28;20067;-75
2022/09/10 07:31:30;;;;;;;2.10;1.10;;;;;;;13.71;100.00;96158.72;5068254;28;20512;-76
2022/09/10 07:34:01;;;;;;;3.13;1.03;;;;;;;13.82;100.00;96160.94;5084325;28;20043;-75
2022/09/10 07:36:27;;;;;;;3.67;0.90;;;;;;;13.85;100.00;96160.59;5065026;28;20024;-75
2022/09/10 07:39:02;;;;;;;2.20;0.83;;;;;;;13.81;100.00;96154.81;5054105;28;20129;-75
2022/09/10 07:41:34;;;;;;;2.93;0.90;;;;;;;13.81;100.00;96170.66;5067191;28;20028;-75
2022/09/10 07:44:02;;;;;;;2.23;0.80;;;;;;;13.88;100.00;96173.41;5052061;28;20024;-78
2022/09/10 07:46:34;;;;;;;4.00;1.00;;;;;;;13.93;100.00;96170.25;5064847;28;20569;-75
2022/09/10 07:49:01;;;;;;;3.60;1.13;;;;;;;13.88;100.00;96179.53;5053821;28;20061;-74
2022/09/10 07:51:29;;;;;;;3.13;1.13;;;;;;;13.82;100.00;96180.25;5063916;28;20041;-74
2022/09/10 07:53:58;;;;;;;2.60;0.90;;;;;;;13.86;100.00;96186.81;5049611;28;20028;-74
2022/09/10 07:56:33;;;;;;;3.35;1.50;;;;;;;13.90;100.00;96188.09;5062453;28;20027;-74
2022/09/10 07:59:01;;;;;;;4.10;1.30;;;;;;;13.90;100.00;96189.91;5060932;28;20117;-74
2022/09/10 08:01:30;;;;;;;4.13;1.97;;;;;;;14.11;100.00;96184.72;5062894;28;20044;-75
2022/09/10 08:03:57;;;;;;;4.10;1.77;;;;;;;14.19;100.00;96190.94;5058948;28;20040;-74
2022/09/10 08:06:25;;;;;;;5.03;1.10;;;;;;;14.33;100.00;96192.75;5066454;28;20031;-73
2022/09/10 08:08:51;;;;;;;2.47;1.20;;;;;;;14.61;100.00;96185.81;5026270;28;20039;-75
2022/09/10 08:11:19;;;;;;;1.97;0.83;;;;;;;14.64;100.00;96187.25;5026267;28;21465;-75
2022/09/10 08:13:51;;;;;;;2.50;1.10;;;;;;;14.73;100.00;96180.88;5021304;28;20425;-75
2022/09/10 08:16:22;;;;;;;4.20;1.10;;;;;;;14.73;100.00;96185.34;5027887;28;20024;-74
2022/09/10 08:18:50;;;;;;;2.20;1.00;;;;;;;14.88;100.00;96186.09;5060406;28;20497;-75
2022/09/10 08:21:17;;;;;;;6.03;1.07;;;;;;;14.85;100.00;96179.38;5066893;28;20397;-74
2022/09/10 08:23:50;;;;;;;2.10;1.00;;;;;;;14.97;100.00;96194.78;5053433;28;20081;-74
2022/09/10 08:26:17;;;;;;;3.70;1.10;;;;;;;14.93;100.00;96186.38;5050639;28;20379;-74
2022/09/10 08:28:46;;;;;;;3.37;1.07;;;;;;;15.06;100.00;96189.16;5037416;28;20031;-74
2022/09/10 08:31:13;;;;;;;3.97;1.07;;;;;;;14.94;100.00;96189.84;5061126;28;20024;-74
2022/09/10 08:33:50;;;;;;;4.32;0.77;;;;;;;14.95;100.00;96186.19;5055585;28;20081;-74
2022/09/10 08:36:17;;;;;;;2.90;1.20;;;;;;;14.91;100.00;96190.22;5056996;28;20025;-75
2022/09/10 08:38:44;;;;;;;4.35;1.27;;;;;;;15.15;100.00;96187.19;5045849;28;20036;-74
2022/09/10 08:41:39;;;;;;;3.22;0.80;;;;;;;15.24;100.00;96190.56;5019872;28;20124;-74
2022/09/10 08:44:51;;;;;;;7.47;1.57;;;;;;;15.21;100.00;96189.09;5046803;28;20040;-75
2022/09/10 08:47:23;;;;;;;4.95;1.00;;;;;;;16.15;100.00;96180.88;5036285;28;20113;-75
2022/09/10 08:49:56;;;;;;;3.28;1.50;;;;;;;16.42;100.00;96175.72;5036264;28;20414;-75
2022/09/10 08:52:47;;;;;;;3.53;1.00;;;;;;;16.56;100.00;96166.78;5033616;28;20028;-75
2022/09/10 08:55:20;;;;;;;1.70;0.80;;;;;;;16.83;100.00;96170.38;5024035;28;20386;-75
2022/09/10 08:58:03;;;;;;;2.78;0.90;;;;;;;16.87;100.00;96165.53;5015911;28;20125;-75
2022/09/10 09:00:33;;;;;;;2.45;0.90;;;;;;;16.97;100.00;96171.25;5015392;28;20691;-75
2022/09/10 09:03:22;;;;;;;2.92;0.82;;;;;;;16.73;100.00;96178.72;5019001;28;20033;-75
2022/09/10 09:05:58;;;;;;;2.78;1.13;;;;;;;16.51;100.00;96177.19;5019002;28;20048;-76
2022/09/10 09:08:35;;;;;;;2.20;1.05;;;;;;;16.51;100.00;96177.19;5041144;28;20096;-74
2022/09/10 09:11:24;;;;;;;2.70;0.80;;;;;;;16.49;100.00;96177.38;5053187;28;20028;-75
2022/09/10 09:13:50;;;;;;;3.75;1.10;;;;;;;16.71;100.00;96172.78;5056471;28;20037;-77
2022/09/10 09:16:26;;;;;;;1.63;0.77;;;;;;;16.59;100.00;96178.84;5044259;28;20040;-76
2022/09/10 09:19:13;;;;;;;2.10;0.90;;;;;;;16.16;100.00;96185.19;5046655;28;20904;-75
2022/09/10 09:21:53;;;;;;;3.72;1.45;;;;;;;16.12;100.00;96191.06;5046213;28;20040;-75
2022/09/10 09:24:39;;;;;;;2.08;0.73;;;;;;;16.08;100.00;96193.28;5047417;28;20047;-75
2022/09/10 09:27:13;;;;;;;1.25;0.60;;;;;;;16.06;100.00;96187.34;5035193;28;20056;-75
2022/09/10 09:30:03;;;;;;;2.20;0.63;;;;;;;15.79;100.00;96189.84;5063896;28;20093;-75
2022/09/10 09:32:38;;;;;;;9.80;1.15;;;;;;;16.03;100.00;96191.22;5060525;28;20748;-75
2022/09/10 09:35:29;;;;;;;6.47;1.38;;;;;;;16.21;100.00;96187.25;5043258;28;20529;-77
2022/09/10 09:38:06;;;;;;;3.30;1.13;;;;;;;16.37;100.00;96192.25;5060693;28;20047;-78
2022/09/10 09:40:36;;;;;;;1.90;0.80;;;;;;;16.73;100.00;96186.69;5044806;28;21262;-76
2022/09/10 09:43:37;;;;;;;2.45;0.80;;;;;;;16.88;100.00;96172.47;5028105;28;20035;-76
2022/09/10 09:46:14;;;;;;;2.22;0.60;;;;;;;17.19;100.00;96161.28;5026266;28;20052;-76
2022/09/10 09:48:41;;;;;;;2.10;1.02;;;;;;;18.13;100.00;96158.41;5044299;28;20029;-77
2022/09/10 09:51:11;;;;;;;3.28;0.65;;;;;;;18.49;100.00;96151.75;5065255;28;20105;-76
2022/09/10 09:53:37;;;;;;;1.80;0.63;;;;;;;18.90;100.00;96147.91;5065341;28;20100;-76
2022/09/10 09:56:10;;;;;;;2.00;0.60;;;;;;;19.73;100.00;96139.75;5065954;28;20488;-78
2022/09/10 09:58:37;;;;;;;3.20;0.77;;;;;;;19.03;100.00;96142.47;5065090;28;20047;-77
2022/09/10 10:01:03;;;;;;;5.45;0.88;;;;;;;18.30;100.00;96149.97;5061699;28;20172;-76
2022/09/10 10:03:37;;;;;;;2.33;0.93;;;;;;;18.18;100.00;96151.66;5062455;28;20753;-76
2022/09/10 10:06:11;;;;;;;5.15;0.95;;;;;;;19.45;100.00;96140.16;5064869;28;20088;-77
2022/09/10 10:08:40;;;;;;;3.00;0.80;;;;;;;19.68;100.00;96141.41;5064164;28;20366;-75
2022/09/10 10:11:16;;;;;;;4.55;0.82;;;;;;;19.25;100.00;96142.16;5065986;28;20029;-77
2022/09/10 10:13:44;;;;;;;2.38;0.60;;;;;;;18.84;100.00;96141.56;5064401;28;20032;-76
2022/09/10 10:16:22;;;;;;;2.17;0.60;;;;;;;18.75;100.00;96131.38;5046154;28;20501;-76
2022/09/10 10:18:48;;;;;;;8.15;2.22;;;;;;;18.06;100.00;96138.97;5061870;28;20041;-77
2022/09/10 10:21:16;;;;;;;8.43;2.70;;;;;;;17.73;100.00;96144.31;5062432;28;20669;-76
2022/09/10 10:23:42;;;;;;;4.53;1.90;;;;;;;17.95;100.00;96136.16;5060030;28;20040;-76
2022/09/10 10:26:30;;;;;;;4.38;1.48;;;;;;;18.43;100.00;96139.28;5060184;28;20049;-76
2022/09/10 10:29:18;;;;;;;6.30;2.00;;;;;;;18.23;100.00;96139.34;5067488;28;20036;-77
2022/09/10 10:31:52;;;;;;;2.78;1.13;;;;;;;18.56;100.00;96136.56;5067268;28;20147;-76
2022/09/10 10:34:20;;;;;;;3.92;0.80;;;;;;;18.73;100.00;96130.78;5059002;28;20056;-77
2022/09/10 10:37:05;;;;;;;3.72;0.90;;;;;;;18.37;100.00;96134.78;5064329;28;20046;-77
2022/09/10 10:39:39;;;;;;;3.72;1.20;;;;;;;18.87;100.00;96123.53;5060466;28;20061;-76
2022/09/10 10:42:17;;;;;;;3.92;0.73;;;;;;;18.30;100.00;96118.84;5063181;28;20035;-76
2022/09/10 10:45:01;;;;;;;3.13;0.60;;;;;;;17.92;100.00;96126.72;5065915;28;20721;-76
2022/09/10 10:48:04;;;;;;;2.58;0.85;;;;;;;17.73;100.00;96127.53;5067858;28;20158;-76
2022/09/10 10:50:57;;;;;;;2.28;0.77;;;;;;;17.53;100.00;96124.91;5060641;28;20025;-76
2022/09/10 10:53:47;;;;;;;3.95;1.00;;;;;;;17.38;100.00;96125.13;5069777;28;20033;-77
2022/09/10 10:56:36;;;;;;;3.53;0.60;;;;;;;17.02;100.00;96126.31;5057329;28;20516;-76
2022/09/10 10:59:16;;;;;;;3.63;0.75;;;;;;;16.91;100.00;96132.22;5062248;28;20060;-76
2022/09/10 11:02:24;;;;;;;2.90;0.85;;;;;;;16.90;100.00;96134.06;5061614;28;20040;-78
2022/09/10 11:04:53;;;;;;;1.98;0.70;;;;;;;16.53;100.00;96132.66;5066083;28;20047;-76
2022/09/10 11:07:33;;;;;;;2.78;0.52;;;;;;;16.03;100.00;96138.19;5060495;28;20037;-76
2022/09/10 11:10:11;;;;;;;2.65;0.60;;;;;;;15.92;100.00;96148.50;5058422;28;20045;-76
2022/09/10 11:13:12;;;;;;;3.03;0.70;;;;;;;15.51;100.00;96165.13;5066018;28;20031;-77
2022/09/10 11:15:48;;;;;;;1.67;0.50;;;;;;;15.08;100.00;96171.25;5065506;28;20044;-76
2022/09/10 11:18:26;;;;;;;2.88;0.80;;;;;;;14.88;100.00;96175.53;5061629;28;20060;-76
2022/09/10 11:21:16;;;;;;;3.00;0.70;;;;;;;14.84;100.00;96175.06;5065460;28;20043;-76
2022/09/10 11:24:01;;;;;;;2.28;0.60;;;;;;;15.11;100.00;96171.88;5066279;28;20077;-76
2022/09/10 11:26:33;;;;;;;3.20;0.70;;;;;;;14.99;100.00;96161.81;5060904;28;20036;-76
2022/09/10 11:29:53;;;;;;;1.00;0.50;;;;;;;15.00;100.00;96168.72;5061924;28;20047;-76
2022/09/10 11:32:41;;;;;;;3.05;0.73;;;;;;;15.70;100.00;96164.47;5067091;28;20097;-77
2022/09/10 11:35:13;;;;;;;1.58;0.70;;;;;;;17.13;100.00;96151.44;5068470;28;20033;-77
2022/09/10 11:38:00;;;;;;;1.85;0.70;;;;;;;16.99;100.00;96161.25;5059796;28;20028;-77
2022/09/10 11:40:46;;;;;;;1.20;0.50;;;;;;;16.59;100.00;96169.03;5055876;28;20029;-77
2022/09/10 11:43:43;;;;;;;1.52;0.70;;;;;;;16.19;100.00;96168.03;5064228;28;20028;-76
2022/09/10 11:46:13;;;;;;;2.90;0.63;;;;;;;15.76;100.00;96168.19;5058619;28;20041;-77
2022/09/10 11:48:58;;;;;;;4.40;0.93;;;;;;;15.59;100.00;96172.91;5068840;28;20082;-76